University Park, PA

2:57 PM EST on January 29, 2015 (GMT -0500)
University Park | Change Station
CLOSE
Current Station
Airport
Location: State College,
Elevation: 1240 ft
Nearby Weather Stations

Elev 1240 ft 40.85 °N, 77.84 °W | Updated 4 minutes ago

Overcast
Overcast
27 °F
Feels Like 19 °F
N
7
Wind Variable Wind from SW

Today
High -- | Low -- °F
--% Chance of Precip.
Yesterday
High -- | Low -- °F
Precip. -- in
7:24 AM 5:24 PM
Waxing Gibbous, 76% visible
Pressure 29.95 in
Visibility 5.0 miles
Clouds Scattered Clouds 2800 ft
Overcast 4700 ft
Windchill 19 °F
Dew Point 7 °F
Humidity 43%
Rainfall 0.00 in
Snow Depth Not available.
UV 1 out of 12
Pollen .10 out of 12
Air Quality Not available.
Flu Activity Not available.
METAR KUNV 291953Z 23006KT 5SM -SN SCT028 OVC047 M03/M14 A2995

More Conditions Fewer Conditions

Pressure 29.95 in
Visibility 5.0 miles
Clouds Scattered Clouds 2800 ft
Overcast 4700 ft
Windchill 19 °F
Dew Point 7 °F
Humidity 43%
Rainfall 0.00 in
Snow Depth Not available.
UV 1 out of 12
Pollen .10 out of 12
Air Quality Not available.
Flu Activity Not available.
METAR KUNV 291953Z 23006KT 5SM -SN SCT028 OVC047 M03/M14 A2995

More Conditions Fewer Conditions

Nowcast | as of 2:01 PM EST on January 29, 2015

Bands of snow...some heavy...will continue to advance eastward across central Pennsylvania this afternoon. At 155 PM...the leading edge of the steadier snow was near a Coudersport...Philipsburg... Bedford line. Some sleet and freezing rain could mix with the snow at times. Most of the area will see some snow by 430 PM. The bands of snow are moving northeast at 25 mph. Persons traveling this afternoon should allow extra travel time and use caution. Travel conditions could become poor on untreated roads.

×

10-Day Weather Forecast

Almanac

Astronomy

Jan. 29, 2015 Rise Set
Actual Time
Civil Twilight
Nautical Twilight
Astronomical Twilight
Moon
Length of Visible Light
Length of Day
Tomorrow will be .
, % of the Moon is Illuminated

Today's Extremes

State Highs State Lows

Community

WunderPhotos

Upload Photos

1,791,568 photos uploaded!

WunderBlogs® & News

Nearby

Air Quality

  Air Quality AQ Index Pollutant
Not available.

Snow Depth

Station Depth Elevation

Earthquake Activity

City Distance Mag. Time & Date
Minimum magnitude displayed is 2.5.

Coastal Water Temperatures

Place Temperature

Nearby Weather Stations